sensor_id;sensor_type;location;lat;lon;timestamp;temperature;humidity
32753;DHT22;19121;52.428;10.816;2022-08-07T00:00:34;25.80;49.90
32753;DHT22;19121;52.428;10.816;2022-08-07T00:03:00;25.80;49.90
32753;DHT22;19121;52.428;10.816;2022-08-07T00:05:26;25.80;50.00
32753;DHT22;19121;52.428;10.816;2022-08-07T00:07:52;25.70;49.90
32753;DHT22;19121;52.428;10.816;2022-08-07T00:10:19;25.70;50.00
32753;DHT22;19121;52.428;10.816;2022-08-07T00:12:45;25.70;49.70
32753;DHT22;19121;52.428;10.816;2022-08-07T00:15:11;25.70;49.80
32753;DHT22;19121;52.428;10.816;2022-08-07T00:17:36;25.70;50.00
32753;DHT22;19121;52.428;10.816;2022-08-07T00:20:03;25.70;50.10
32753;DHT22;19121;52.428;10.816;2022-08-07T00:22:29;25.70;49.90
32753;DHT22;19121;52.428;10.816;2022-08-07T00:24:55;25.70;49.80
32753;DHT22;19121;52.428;10.816;2022-08-07T00:27:20;25.70;50.00
32753;DHT22;19121;52.428;10.816;2022-08-07T00:29:46;25.70;50.00
32753;DHT22;19121;52.428;10.816;2022-08-07T00:32:11;25.60;50.00
32753;DHT22;19121;52.428;10.816;2022-08-07T00:34:38;25.60;50.00
32753;DHT22;19121;52.428;10.816;2022-08-07T00:37:04;25.60;50.00
32753;DHT22;19121;52.428;10.816;2022-08-07T00:39:29;25.60;49.90
32753;DHT22;19121;52.428;10.816;2022-08-07T00:41:56;25.60;49.80
32753;DHT22;19121;52.428;10.816;2022-08-07T00:44:23;25.60;49.80
32753;DHT22;19121;52.428;10.816;2022-08-07T00:46:48;25.60;49.80
32753;DHT22;19121;52.428;10.816;2022-08-07T00:49:15;25.60;49.70
32753;DHT22;19121;52.428;10.816;2022-08-07T00:51:40;25.60;49.90
32753;DHT22;19121;52.428;10.816;2022-08-07T00:54:06;25.60;49.70
32753;DHT22;19121;52.428;10.816;2022-08-07T00:56:32;25.60;49.70
32753;DHT22;19121;52.428;10.816;2022-08-07T00:58:58;25.60;49.80
32753;DHT22;19121;52.428;10.816;2022-08-07T01:01:24;25.60;49.80
32753;DHT22;19121;52.428;10.816;2022-08-07T01:03:50;25.60;49.70
32753;DHT22;19121;52.428;10.816;2022-08-07T01:06:17;25.60;49.80
32753;DHT22;19121;52.428;10.816;2022-08-07T01:08:44;25.60;50.40
32753;DHT22;19121;52.428;10.816;2022-08-07T01:11:12;25.60;49.80
32753;DHT22;19121;52.428;10.816;2022-08-07T01:13:37;25.60;49.70
32753;DHT22;19121;52.428;10.816;2022-08-07T01:16:04;25.60;49.70
32753;DHT22;19121;52.428;10.816;2022-08-07T01:18:31;25.60;49.70
32753;DHT22;19121;52.428;10.816;2022-08-07T01:21:16;25.50;49.70
32753;DHT22;19121;52.428;10.816;2022-08-07T01:23:44;25.60;49.80
32753;DHT22;19121;52.428;10.816;2022-08-07T01:26:13;25.50;49.70
32753;DHT22;19121;52.428;10.816;2022-08-07T01:28:41;25.50;49.70
32753;DHT22;19121;52.428;10.816;2022-08-07T01:31:07;25.50;49.70
32753;DHT22;19121;52.428;10.816;2022-08-07T01:33:32;25.50;49.80
32753;DHT22;19121;52.428;10.816;2022-08-07T01:35:58;25.50;49.80
32753;DHT22;19121;52.428;10.816;2022-08-07T01:38:25;25.50;49.70
32753;DHT22;19121;52.428;10.816;2022-08-07T01:40:54;25.50;49.70
32753;DHT22;19121;52.428;10.816;2022-08-07T01:43:22;25.50;49.70
32753;DHT22;19121;52.428;10.816;2022-08-07T01:45:48;25.40;49.60
32753;DHT22;19121;52.428;10.816;2022-08-07T01:48:14;25.40;49.70
32753;DHT22;19121;52.428;10.816;2022-08-07T01:50:40;25.40;49.70
32753;DHT22;19121;52.428;10.816;2022-08-07T01:53:06;25.50;49.70
32753;DHT22;19121;52.428;10.816;2022-08-07T01:55:40;25.40;49.60
32753;DHT22;19121;52.428;10.816;2022-08-07T01:58:09;25.40;49.60
32753;DHT22;19121;52.428;10.816;2022-08-07T02:00:36;25.40;49.70
32753;DHT22;19121;52.428;10.816;2022-08-07T02:03:08;25.40;49.70
32753;DHT22;19121;52.428;10.816;2022-08-07T02:05:38;25.40;49.60
32753;DHT22;19121;52.428;10.816;2022-08-07T02:08:09;25.40;49.60
32753;DHT22;19121;52.428;10.816;2022-08-07T02:10:36;25.40;49.60
32753;DHT22;19121;52.428;10.816;2022-08-07T02:13:03;25.40;49.60
32753;DHT22;19121;52.428;10.816;2022-08-07T02:15:30;25.40;49.60
32753;DHT22;19121;52.428;10.816;2022-08-07T02:17:57;25.40;49.60
32753;DHT22;19121;52.428;10.816;2022-08-07T02:20:23;25.30;49.60
32753;DHT22;19121;52.428;10.816;2022-08-07T02:22:52;25.40;49.70
32753;DHT22;19121;52.428;10.816;2022-08-07T02:25:19;25.30;49.60
32753;DHT22;19121;52.428;10.816;2022-08-07T02:27:47;25.30;49.50
32753;DHT22;19121;52.428;10.816;2022-08-07T02:30:13;25.30;49.60
32753;DHT22;19121;52.428;10.816;2022-08-07T02:32:40;25.30;49.60
32753;DHT22;19121;52.428;10.816;2022-08-07T02:35:07;25.30;49.50
32753;DHT22;19121;52.428;10.816;2022-08-07T02:37:35;25.30;49.50
32753;DHT22;19121;52.428;10.816;2022-08-07T02:40:03;25.30;49.50
32753;DHT22;19121;52.428;10.816;2022-08-07T02:42:30;25.30;49.50
32753;DHT22;19121;52.428;10.816;2022-08-07T02:44:57;25.20;49.40
32753;DHT22;19121;52.428;10.816;2022-08-07T02:47:24;25.30;49.50
32753;DHT22;19121;52.428;10.816;2022-08-07T02:49:49;25.20;49.50
32753;DHT22;19121;52.428;10.816;2022-08-07T02:52:21;25.20;49.50
32753;DHT22;19121;52.428;10.816;2022-08-07T02:54:47;25.20;49.40
32753;DHT22;19121;52.428;10.816;2022-08-07T02:57:15;25.20;49.40
32753;DHT22;19121;52.428;10.816;2022-08-07T02:59:43;25.20;49.40
32753;DHT22;19121;52.428;10.816;2022-08-07T03:02:13;25.20;49.40
32753;DHT22;19121;52.428;10.816;2022-08-07T03:04:42;25.20;49.40
32753;DHT22;19121;52.428;10.816;2022-08-07T03:07:09;25.20;49.40
32753;DHT22;19121;52.428;10.816;2022-08-07T03:09:35;25.20;49.40
32753;DHT22;19121;52.428;10.816;2022-08-07T03:12:02;25.20;49.40
32753;DHT22;19121;52.428;10.816;2022-08-07T03:14:29;25.10;49.30
32753;DHT22;19121;52.428;10.816;2022-08-07T03:16:55;25.20;49.40
32753;DHT22;19121;52.428;10.816;2022-08-07T03:19:22;25.10;49.30
32753;DHT22;19121;52.428;10.816;2022-08-07T03:21:49;25.10;49.40
32753;DHT22;19121;52.428;10.816;2022-08-07T03:24:15;25.10;49.30
32753;DHT22;19121;52.428;10.816;2022-08-07T03:26:42;25.10;49.20
32753;DHT22;19121;52.428;10.816;2022-08-07T03:29:11;25.10;49.90
32753;DHT22;19121;52.428;10.816;2022-08-07T03:31:37;25.10;49.30
32753;DHT22;19121;52.428;10.816;2022-08-07T03:34:05;25.10;49.40
32753;DHT22;19121;52.428;10.816;2022-08-07T03:36:33;25.10;49.30
32753;DHT22;19121;52.428;10.816;2022-08-07T03:39:03;25.10;49.30
32753;DHT22;19121;52.428;10.816;2022-08-07T03:41:30;25.10;49.30
32753;DHT22;19121;52.428;10.816;2022-08-07T03:43:56;25.10;49.30
32753;DHT22;19121;52.428;10.816;2022-08-07T03:46:23;25.10;49.30
32753;DHT22;19121;52.428;10.816;2022-08-07T03:48:50;25.10;49.30
32753;DHT22;19121;52.428;10.816;2022-08-07T03:51:17;25.00;49.20
32753;DHT22;19121;52.428;10.816;2022-08-07T03:53:44;25.00;49.30
32753;DHT22;19121;52.428;10.816;2022-08-07T03:56:10;25.00;49.10
32753;DHT22;19121;52.428;10.816;2022-08-07T03:58:39;25.00;49.20
32753;DHT22;19121;52.428;10.816;2022-08-07T04:01:05;25.00;49.20
32753;DHT22;19121;52.428;10.816;2022-08-07T04:03:32;25.00;49.20
32753;DHT22;19121;52.428;10.816;2022-08-07T04:05:58;25.00;49.20
32753;DHT22;19121;52.428;10.816;2022-08-07T04:08:24;25.00;49.20
32753;DHT22;19121;52.428;10.816;2022-08-07T04:10:51;25.00;49.20
32753;DHT22;19121;52.428;10.816;2022-08-07T04:13:17;25.00;49.20
32753;DHT22;19121;52.428;10.816;2022-08-07T04:15:43;25.00;49.30
32753;DHT22;19121;52.428;10.816;2022-08-07T04:18:11;24.90;49.10
32753;DHT22;19121;52.428;10.816;2022-08-07T04:20:38;24.90;49.10
32753;DHT22;19121;52.428;10.816;2022-08-07T04:23:04;24.90;49.10
32753;DHT22;19121;52.428;10.816;2022-08-07T04:25:30;24.90;49.20
32753;DHT22;19121;52.428;10.816;2022-08-07T04:27:55;24.90;49.20
32753;DHT22;19121;52.428;10.816;2022-08-07T04:30:21;24.90;49.10
32753;DHT22;19121;52.428;10.816;2022-08-07T04:32:47;24.90;49.10
32753;DHT22;19121;52.428;10.816;2022-08-07T04:35:13;24.90;49.10
32753;DHT22;19121;52.428;10.816;2022-08-07T04:37:39;24.90;49.10
32753;DHT22;19121;52.428;10.816;2022-08-07T04:40:05;24.90;49.20
32753;DHT22;19121;52.428;10.816;2022-08-07T04:42:30;24.90;49.80
32753;DHT22;19121;52.428;10.816;2022-08-07T04:45:00;24.90;49.30
32753;DHT22;19121;52.428;10.816;2022-08-07T04:47:42;24.90;49.20
32753;DHT22;19121;52.428;10.816;2022-08-07T04:53:16;24.90;49.20
32753;DHT22;19121;52.428;10.816;2022-08-07T04:56:00;24.90;49.20
32753;DHT22;19121;52.428;10.816;2022-08-07T04:58:39;24.90;49.20
32753;DHT22;19121;52.428;10.816;2022-08-07T05:01:28;24.90;49.20
32753;DHT22;19121;52.428;10.816;2022-08-07T05:04:09;24.90;49.20
32753;DHT22;19121;52.428;10.816;2022-08-07T05:07:00;24.90;49.10
32753;DHT22;19121;52.428;10.816;2022-08-07T05:09:31;24.90;49.10
32753;DHT22;19121;52.428;10.816;2022-08-07T05:11:57;25.00;49.00
32753;DHT22;19121;52.428;10.816;2022-08-07T05:14:35;25.00;48.80
32753;DHT22;19121;52.428;10.816;2022-08-07T05:17:02;25.00;48.70
32753;DHT22;19121;52.428;10.816;2022-08-07T05:19:34;25.00;48.60
32753;DHT22;19121;52.428;10.816;2022-08-07T05:22:02;25.00;48.50
32753;DHT22;19121;52.428;10.816;2022-08-07T05:24:29;25.10;48.50
32753;DHT22;19121;52.428;10.816;2022-08-07T05:26:58;25.10;48.40
32753;DHT22;19121;52.428;10.816;2022-08-07T05:29:24;25.10;48.40
32753;DHT22;19121;52.428;10.816;2022-08-07T05:31:52;25.10;48.30
32753;DHT22;19121;52.428;10.816;2022-08-07T05:34:19;25.10;48.20
32753;DHT22;19121;52.428;10.816;2022-08-07T05:36:47;25.10;48.20
32753;DHT22;19121;52.428;10.816;2022-08-07T05:39:16;25.20;48.30
32753;DHT22;19121;52.428;10.816;2022-08-07T05:41:43;25.20;48.20
32753;DHT22;19121;52.428;10.816;2022-08-07T05:44:12;25.20;48.20
32753;DHT22;19121;52.428;10.816;2022-08-07T05:46:39;25.20;48.20
32753;DHT22;19121;52.428;10.816;2022-08-07T05:49:07;25.30;48.20
32753;DHT22;19121;52.428;10.816;2022-08-07T05:51:33;25.20;48.20
32753;DHT22;19121;52.428;10.816;2022-08-07T05:54:00;25.20;48.10
32753;DHT22;19121;52.428;10.816;2022-08-07T05:56:27;25.30;48.70
32753;DHT22;19121;52.428;10.816;2022-08-07T05:58:53;25.30;48.00
32753;DHT22;19121;52.428;10.816;2022-08-07T06:01:20;25.40;48.00
32753;DHT22;19121;52.428;10.816;2022-08-07T06:03:50;25.40;48.00
32753;DHT22;19121;52.428;10.816;2022-08-07T06:06:17;25.40;48.00
32753;DHT22;19121;52.428;10.816;2022-08-07T06:08:43;25.40;48.00
32753;DHT22;19121;52.428;10.816;2022-08-07T06:11:10;25.50;48.00
32753;DHT22;19121;52.428;10.816;2022-08-07T06:13:36;25.50;48.00
32753;DHT22;19121;52.428;10.816;2022-08-07T06:16:02;25.50;48.00
32753;DHT22;19121;52.428;10.816;2022-08-07T06:18:31;25.50;47.90
32753;DHT22;19121;52.428;10.816;2022-08-07T06:20:59;25.50;47.80
32753;DHT22;19121;52.428;10.816;2022-08-07T06:23:24;25.60;47.80
32753;DHT22;19121;52.428;10.816;2022-08-07T06:25:50;25.60;47.80
32753;DHT22;19121;52.428;10.816;2022-08-07T06:28:16;25.60;47.70
32753;DHT22;19121;52.428;10.816;2022-08-07T06:30:41;25.70;47.70
32753;DHT22;19121;52.428;10.816;2022-08-07T06:33:07;25.70;48.30
32753;DHT22;19121;52.428;10.816;2022-08-07T06:35:36;25.70;47.70
32753;DHT22;19121;52.428;10.816;2022-08-07T06:38:02;25.80;47.60
32753;DHT22;19121;52.428;10.816;2022-08-07T06:40:30;25.80;47.60
32753;DHT22;19121;52.428;10.816;2022-08-07T06:42:59;25.80;47.50
32753;DHT22;19121;52.428;10.816;2022-08-07T06:45:26;25.80;47.50
32753;DHT22;19121;52.428;10.816;2022-08-07T06:47:54;25.90;47.50
32753;DHT22;19121;52.428;10.816;2022-08-07T06:50:19;25.90;47.70
32753;DHT22;19121;52.428;10.816;2022-08-07T06:52:50;25.90;47.40
32753;DHT22;19121;52.428;10.816;2022-08-07T06:55:22;26.00;47.40
32753;DHT22;19121;52.428;10.816;2022-08-07T06:57:48;26.00;47.30
32753;DHT22;19121;52.428;10.816;2022-08-07T07:00:16;26.00;47.30
32753;DHT22;19121;52.428;10.816;2022-08-07T07:02:43;26.00;47.20
32753;DHT22;19121;52.428;10.816;2022-08-07T07:05:09;26.10;47.20
32753;DHT22;19121;52.428;10.816;2022-08-07T07:07:34;26.10;47.20
32753;DHT22;19121;52.428;10.816;2022-08-07T07:10:00;26.10;47.20
32753;DHT22;19121;52.428;10.816;2022-08-07T07:12:34;26.20;47.20
32753;DHT22;19121;52.428;10.816;2022-08-07T07:15:18;26.20;47.10
32753;DHT22;19121;52.428;10.816;2022-08-07T07:17:51;26.20;47.10
32753;DHT22;19121;52.428;10.816;2022-08-07T07:20:22;26.20;47.10
32753;DHT22;19121;52.428;10.816;2022-08-07T07:22:50;26.30;47.10
32753;DHT22;19121;52.428;10.816;2022-08-07T07:25:17;26.30;47.00
32753;DHT22;19121;52.428;10.816;2022-08-07T07:27:53;26.30;47.00
32753;DHT22;19121;52.428;10.816;2022-08-07T07:30:25;26.40;47.00
32753;DHT22;19121;52.428;10.816;2022-08-07T07:32:52;26.40;47.00
32753;DHT22;19121;52.428;10.816;2022-08-07T07:35:21;26.40;46.90
32753;DHT22;19121;52.428;10.816;2022-08-07T07:37:48;26.40;46.80
32753;DHT22;19121;52.428;10.816;2022-08-07T07:40:17;26.50;46.90
32753;DHT22;19121;52.428;10.816;2022-08-07T07:42:51;26.50;46.90
32753;DHT22;19121;52.428;10.816;2022-08-07T07:45:18;26.50;46.90
32753;DHT22;19121;52.428;10.816;2022-08-07T07:47:46;26.50;46.90
32753;DHT22;19121;52.428;10.816;2022-08-07T07:50:13;26.50;46.80
32753;DHT22;19121;52.428;10.816;2022-08-07T07:52:41;26.60;46.80
32753;DHT22;19121;52.428;10.816;2022-08-07T07:55:08;26.60;46.80
32753;DHT22;19121;52.428;10.816;2022-08-07T07:57:34;26.60;46.70
32753;DHT22;19121;52.428;10.816;2022-08-07T08:00:01;26.70;46.70
32753;DHT22;19121;52.428;10.816;2022-08-07T08:02:28;26.70;46.70
32753;DHT22;19121;52.428;10.816;2022-08-07T08:04:55;26.70;46.70
32753;DHT22;19121;52.428;10.816;2022-08-07T08:07:22;26.70;46.70
32753;DHT22;19121;52.428;10.816;2022-08-07T08:09:49;26.70;46.70
32753;DHT22;19121;52.428;10.816;2022-08-07T08:12:16;26.80;46.70
32753;DHT22;19121;52.428;10.816;2022-08-07T08:14:42;26.80;46.60
32753;DHT22;19121;52.428;10.816;2022-08-07T08:17:09;26.80;46.60
32753;DHT22;19121;52.428;10.816;2022-08-07T08:19:35;26.80;46.60
32753;DHT22;19121;52.428;10.816;2022-08-07T08:22:04;26.90;46.60
32753;DHT22;19121;52.428;10.816;2022-08-07T08:24:51;26.90;46.50
32753;DHT22;19121;52.428;10.816;2022-08-07T08:27:37;26.90;46.50
32753;DHT22;19121;52.428;10.816;2022-08-07T08:30:06;26.90;46.50
32753;DHT22;19121;52.428;10.816;2022-08-07T08:32:37;26.90;46.50
32753;DHT22;19121;52.428;10.816;2022-08-07T08:35:06;27.00;46.50
32753;DHT22;19121;52.428;10.816;2022-08-07T08:37:35;27.00;46.50
32753;DHT22;19121;52.428;10.816;2022-08-07T08:40:04;27.00;46.50
32753;DHT22;19121;52.428;10.816;2022-08-07T08:42:44;27.00;46.40
32753;DHT22;19121;52.428;10.816;2022-08-07T08:45:28;27.00;46.50
32753;DHT22;19121;52.428;10.816;2022-08-07T08:48:24;27.10;46.50
32753;DHT22;19121;52.428;10.816;2022-08-07T08:51:06;27.10;46.40
32753;DHT22;19121;52.428;10.816;2022-08-07T08:56:42;27.10;46.40
32753;DHT22;19121;52.428;10.816;2022-08-07T08:59:24;27.20;46.40
32753;DHT22;19121;52.428;10.816;2022-08-07T09:01:59;27.20;46.40
32753;DHT22;19121;52.428;10.816;2022-08-07T09:04:41;27.20;46.40
32753;DHT22;19121;52.428;10.816;2022-08-07T09:07:30;27.20;46.40
32753;DHT22;19121;52.428;10.816;2022-08-07T09:10:08;27.20;46.40
32753;DHT22;19121;52.428;10.816;2022-08-07T09:12:52;27.20;46.40
32753;DHT22;19121;52.428;10.816;2022-08-07T09:15:33;27.20;46.30
32753;DHT22;19121;52.428;10.816;2022-08-07T09:29:56;27.30;46.40
32753;DHT22;19121;52.428;10.816;2022-08-07T09:38:38;27.30;46.40
32753;DHT22;19121;52.428;10.816;2022-08-07T09:41:08;27.30;46.50
32753;DHT22;19121;52.428;10.816;2022-08-07T09:44:00;27.30;46.50
32753;DHT22;19121;52.428;10.816;2022-08-07T09:50:00;27.30;46.60
32753;DHT22;19121;52.428;10.816;2022-08-07T09:52:39;27.30;46.60
32753;DHT22;19121;52.428;10.816;2022-08-07T09:55:20;27.30;46.60
32753;DHT22;19121;52.428;10.816;2022-08-07T09:58:08;27.30;46.70
32753;DHT22;19121;52.428;10.816;2022-08-07T10:00:57;27.20;46.70
32753;DHT22;19121;52.428;10.816;2022-08-07T10:06:24;27.20;46.80
32753;DHT22;19121;52.428;10.816;2022-08-07T10:09:14;27.20;46.80
32753;DHT22;19121;52.428;10.816;2022-08-07T10:20:34;27.20;46.80
32753;DHT22;19121;52.428;10.816;2022-08-07T10:26:05;27.20;46.90
32753;DHT22;19121;52.428;10.816;2022-08-07T10:31:52;27.20;46.90
32753;DHT22;19121;52.428;10.816;2022-08-07T10:34:32;27.30;47.00
32753;DHT22;19121;52.428;10.816;2022-08-07T10:37:26;27.30;47.00
32753;DHT22;19121;52.428;10.816;2022-08-07T10:40:05;27.30;47.00
32753;DHT22;19121;52.428;10.816;2022-08-07T10:43:00;27.20;46.90
32753;DHT22;19121;52.428;10.816;2022-08-07T10:45:37;27.20;47.00
32753;DHT22;19121;52.428;10.816;2022-08-07T10:48:41;27.30;47.00
32753;DHT22;19121;52.428;10.816;2022-08-07T10:51:21;27.30;47.00
32753;DHT22;19121;52.428;10.816;2022-08-07T10:53:55;27.20;47.00
32753;DHT22;19121;52.428;10.816;2022-08-07T10:56:44;27.20;47.00
32753;DHT22;19121;52.428;10.816;2022-08-07T10:59:19;27.20;47.00
32753;DHT22;19121;52.428;10.816;2022-08-07T11:02:23;27.20;47.00
32753;DHT22;19121;52.428;10.816;2022-08-07T11:04:51;27.20;47.00
32753;DHT22;19121;52.428;10.816;2022-08-07T11:07:44;27.20;47.00
32753;DHT22;19121;52.428;10.816;2022-08-07T11:10:27;27.20;47.00
32753;DHT22;19121;52.428;10.816;2022-08-07T11:12:59;27.20;47.10
32753;DHT22;19121;52.428;10.816;2022-08-07T11:15:31;27.20;47.10
32753;DHT22;19121;52.428;10.816;2022-08-07T11:18:03;27.20;47.10
32753;DHT22;19121;52.428;10.816;2022-08-07T11:20:39;27.20;47.10
32753;DHT22;19121;52.428;10.816;2022-08-07T11:23:29;27.20;47.20
32753;DHT22;19121;52.428;10.816;2022-08-07T11:26:09;27.20;47.20
32753;DHT22;19121;52.428;10.816;2022-08-07T11:31:45;27.20;47.20
32753;DHT22;19121;52.428;10.816;2022-08-07T11:37:16;27.20;47.30
32753;DHT22;19121;52.428;10.816;2022-08-07T11:42:59;27.20;47.20
32753;DHT22;19121;52.428;10.816;2022-08-07T11:45:46;27.20;47.20
32753;DHT22;19121;52.428;10.816;2022-08-07T11:48:47;27.20;47.30
32753;DHT22;19121;52.428;10.816;2022-08-07T11:54:45;27.20;47.30
32753;DHT22;19121;52.428;10.816;2022-08-07T12:00:15;27.30;47.30
32753;DHT22;19121;52.428;10.816;2022-08-07T12:06:07;27.30;47.30
32753;DHT22;19121;52.428;10.816;2022-08-07T12:08:45;27.30;47.30
32753;DHT22;19121;52.428;10.816;2022-08-07T12:11:19;27.30;47.30
32753;DHT22;19121;52.428;10.816;2022-08-07T12:13:57;27.30;47.30
32753;DHT22;19121;52.428;10.816;2022-08-07T12:16:30;27.30;47.30
32753;DHT22;19121;52.428;10.816;2022-08-07T12:19:12;27.30;47.30
32753;DHT22;19121;52.428;10.816;2022-08-07T12:24:47;27.30;47.30
32753;DHT22;19121;52.428;10.816;2022-08-07T12:27:41;27.30;47.40
32753;DHT22;19121;52.428;10.816;2022-08-07T12:30:08;27.30;47.40
32753;DHT22;19121;52.428;10.816;2022-08-07T12:32:53;27.30;47.30
32753;DHT22;19121;52.428;10.816;2022-08-07T12:35:23;27.30;47.30
32753;DHT22;19121;52.428;10.816;2022-08-07T12:37:50;27.30;47.30
32753;DHT22;19121;52.428;10.816;2022-08-07T12:40:20;27.30;47.30
32753;DHT22;19121;52.428;10.816;2022-08-07T12:42:48;27.30;47.30
32753;DHT22;19121;52.428;10.816;2022-08-07T12:45:20;27.30;47.30
32753;DHT22;19121;52.428;10.816;2022-08-07T12:48:03;27.30;47.40
32753;DHT22;19121;52.428;10.816;2022-08-07T12:50:38;27.30;47.30
32753;DHT22;19121;52.428;10.816;2022-08-07T12:56:08;27.30;47.30
32753;DHT22;19121;52.428;10.816;2022-08-07T12:58:36;27.30;47.30
32753;DHT22;19121;52.428;10.816;2022-08-07T13:03:49;27.30;47.30
32753;DHT22;19121;52.428;10.816;2022-08-07T13:06:34;27.30;47.30
32753;DHT22;19121;52.428;10.816;2022-08-07T13:09:10;27.30;47.30
32753;DHT22;19121;52.428;10.816;2022-08-07T13:12:03;27.30;47.30
32753;DHT22;19121;52.428;10.816;2022-08-07T13:14:53;27.30;47.30
32753;DHT22;19121;52.428;10.816;2022-08-07T13:17:32;27.30;47.30
32753;DHT22;19121;52.428;10.816;2022-08-07T13:20:07;27.30;47.20
32753;DHT22;19121;52.428;10.816;2022-08-07T13:22:38;27.30;47.20
32753;DHT22;19121;52.428;10.816;2022-08-07T13:25:09;27.30;47.20
32753;DHT22;19121;52.428;10.816;2022-08-07T13:27:42;27.30;47.20
32753;DHT22;19121;52.428;10.816;2022-08-07T13:30:12;27.30;47.20
32753;DHT22;19121;52.428;10.816;2022-08-07T13:32:57;27.30;47.20
32753;DHT22;19121;52.428;10.816;2022-08-07T13:35:32;27.30;47.20
32753;DHT22;19121;52.428;10.816;2022-08-07T13:38:10;27.30;47.20
32753;DHT22;19121;52.428;10.816;2022-08-07T13:40:46;27.30;47.20
32753;DHT22;19121;52.428;10.816;2022-08-07T13:43:14;27.30;47.20
32753;DHT22;19121;52.428;10.816;2022-08-07T13:45:44;27.30;47.20
32753;DHT22;19121;52.428;10.816;2022-08-07T13:48:11;27.30;47.20
32753;DHT22;19121;52.428;10.816;2022-08-07T13:50:40;27.30;47.20
32753;DHT22;19121;52.428;10.816;2022-08-07T13:53:07;27.30;47.30
32753;DHT22;19121;52.428;10.816;2022-08-07T13:55:34;27.30;47.40
32753;DHT22;19121;52.428;10.816;2022-08-07T13:58:06;27.30;47.80
32753;DHT22;19121;52.428;10.816;2022-08-07T14:00:52;27.30;47.70
32753;DHT22;19121;52.428;10.816;2022-08-07T14:03:20;27.30;47.60
32753;DHT22;19121;52.428;10.816;2022-08-07T14:05:51;27.40;47.40
32753;DHT22;19121;52.428;10.816;2022-08-07T14:08:20;27.40;47.10
32753;DHT22;19121;52.428;10.816;2022-08-07T14:10:47;27.40;47.00
32753;DHT22;19121;52.428;10.816;2022-08-07T14:13:17;27.40;46.90
32753;DHT22;19121;52.428;10.816;2022-08-07T14:15:53;27.40;46.90
32753;DHT22;19121;52.428;10.816;2022-08-07T14:18:39;27.40;46.80
32753;DHT22;19121;52.428;10.816;2022-08-07T14:21:14;27.40;46.80
32753;DHT22;19121;52.428;10.816;2022-08-07T14:23:55;27.40;46.80
32753;DHT22;19121;52.428;10.816;2022-08-07T14:26:25;27.40;46.80
32753;DHT22;19121;52.428;10.816;2022-08-07T14:28:52;27.40;46.80
32753;DHT22;19121;52.428;10.816;2022-08-07T14:31:22;27.40;46.80
32753;DHT22;19121;52.428;10.816;2022-08-07T14:33:50;27.40;46.70
32753;DHT22;19121;52.428;10.816;2022-08-07T14:36:17;27.40;46.80
32753;DHT22;19121;52.428;10.816;2022-08-07T14:38:43;27.40;46.70
32753;DHT22;19121;52.428;10.816;2022-08-07T14:41:12;27.40;46.70
32753;DHT22;19121;52.428;10.816;2022-08-07T14:43:44;27.40;46.80
32753;DHT22;19121;52.428;10.816;2022-08-07T14:46:12;27.40;46.70
32753;DHT22;19121;52.428;10.816;2022-08-07T14:48:41;27.40;46.70
32753;DHT22;19121;52.428;10.816;2022-08-07T14:51:10;27.40;46.70
32753;DHT22;19121;52.428;10.816;2022-08-07T14:53:40;27.40;46.70
32753;DHT22;19121;52.428;10.816;2022-08-07T14:56:08;27.40;46.70
32753;DHT22;19121;52.428;10.816;2022-08-07T14:58:36;27.40;46.70
32753;DHT22;19121;52.428;10.816;2022-08-07T15:01:13;27.40;46.70
32753;DHT22;19121;52.428;10.816;2022-08-07T15:03:42;27.40;46.70
32753;DHT22;19121;52.428;10.816;2022-08-07T15:06:11;27.40;46.70
32753;DHT22;19121;52.428;10.816;2022-08-07T15:08:41;27.40;46.60
32753;DHT22;19121;52.428;10.816;2022-08-07T15:11:16;27.40;46.70
32753;DHT22;19121;52.428;10.816;2022-08-07T15:13:52;27.40;46.70
32753;DHT22;19121;52.428;10.816;2022-08-07T15:16:25;27.40;46.70
32753;DHT22;19121;52.428;10.816;2022-08-07T15:18:54;27.40;46.70
32753;DHT22;19121;52.428;10.816;2022-08-07T15:21:27;27.40;46.60
32753;DHT22;19121;52.428;10.816;2022-08-07T15:23:56;27.40;46.60
32753;DHT22;19121;52.428;10.816;2022-08-07T15:26:32;27.40;46.60
32753;DHT22;19121;52.428;10.816;2022-08-07T15:29:00;27.30;46.60
32753;DHT22;19121;52.428;10.816;2022-08-07T15:31:27;27.30;47.20
32753;DHT22;19121;52.428;10.816;2022-08-07T15:33:58;27.30;46.60
32753;DHT22;19121;52.428;10.816;2022-08-07T15:36:25;27.30;46.60
32753;DHT22;19121;52.428;10.816;2022-08-07T15:38:52;27.40;46.60
32753;DHT22;19121;52.428;10.816;2022-08-07T15:41:22;27.30;46.60
32753;DHT22;19121;52.428;10.816;2022-08-07T15:44:19;27.30;46.60
32753;DHT22;19121;52.428;10.816;2022-08-07T15:46:58;27.30;46.60
32753;DHT22;19121;52.428;10.816;2022-08-07T15:49:28;27.30;46.60
32753;DHT22;19121;52.428;10.816;2022-08-07T15:51:55;27.30;46.60
32753;DHT22;19121;52.428;10.816;2022-08-07T15:54:22;27.30;46.60
32753;DHT22;19121;52.428;10.816;2022-08-07T15:56:48;27.30;46.60
32753;DHT22;19121;52.428;10.816;2022-08-07T15:59:15;27.30;46.60
32753;DHT22;19121;52.428;10.816;2022-08-07T16:01:48;27.30;46.60
32753;DHT22;19121;52.428;10.816;2022-08-07T16:04:16;27.30;46.60
32753;DHT22;19121;52.428;10.816;2022-08-07T16:06:53;27.30;46.60
32753;DHT22;19121;52.428;10.816;2022-08-07T16:09:25;27.30;46.60
32753;DHT22;19121;52.428;10.816;2022-08-07T16:23:17;27.30;46.60
32753;DHT22;19121;52.428;10.816;2022-08-07T16:25:58;27.20;46.60
32753;DHT22;19121;52.428;10.816;2022-08-07T16:28:41;27.20;46.60
32753;DHT22;19121;52.428;10.816;2022-08-07T16:31:21;27.20;46.60
32753;DHT22;19121;52.428;10.816;2022-08-07T16:33:50;27.30;46.70
32753;DHT22;19121;52.428;10.816;2022-08-07T16:36:29;27.20;46.60
32753;DHT22;19121;52.428;10.816;2022-08-07T16:39:19;27.20;46.60
32753;DHT22;19121;52.428;10.816;2022-08-07T16:42:16;27.20;46.50
32753;DHT22;19121;52.428;10.816;2022-08-07T16:45:02;27.20;46.50
32753;DHT22;19121;52.428;10.816;2022-08-07T16:53:38;27.20;46.60
32753;DHT22;19121;52.428;10.816;2022-08-07T16:56:18;27.20;46.60
32753;DHT22;19121;52.428;10.816;2022-08-07T17:02:04;27.20;46.60
32753;DHT22;19121;52.428;10.816;2022-08-07T17:04:36;27.20;46.60
32753;DHT22;19121;52.428;10.816;2022-08-07T17:09:57;27.20;46.70
32753;DHT22;19121;52.428;10.816;2022-08-07T17:12:45;27.20;46.60
32753;DHT22;19121;52.428;10.816;2022-08-07T17:20:38;27.10;46.60
32753;DHT22;19121;52.428;10.816;2022-08-07T17:23:26;27.20;46.60